| time (UTC) | temp C | wind direction | speed KPH | gust KPH | rain 1hr cm | rain 24hr cm | rain mn cm | humidity % | barometer mb |
| 20260905064600 | 13 | 164 | 6.4 | 11.3 | 0.08 | 0.18 | 0.15 | 98 | 1021.7 |
| 20260905063541 | 13 | 170 | 11.3 | 16.1 | 0.08 | 0.18 | 0.15 | 98 | 1021.7 |
| 20260905062542 | 14 | 178 | 8.0 | 12.9 | 0.05 | 0.15 | 0.13 | 96 | 1022.2 |
| 20260905061542 | 14 | 173 | 4.8 | 11.3 | 0.05 | 0.15 | 0.13 | 96 | 1022.1 |
| 20260905060543 | 14 | 152 | 4.8 | 9.7 | 0.08 | 0.15 | 0.13 | 95 | 1022.0 |
| 20260905055542 | 14 | 152 | 3.2 | 8.0 | 0.05 | 0.10 | 0.08 | 95 | 1022.1 |
| 20260905054543 | 14 | 137 | 3.2 | 8.0 | 0.08 | 0.10 | 0.08 | 95 | 1022.1 |
| 20260905053544 | 14 | 157 | 4.8 | 9.7 | 0.08 | 0.10 | 0.08 | 95 | 1022.1 |
| 20260905052543 | 14 | 83 | 0.0 | 3.2 | 0.08 | 0.10 | 0.08 | 95 | 1021.8 |
| 20260905051604 | 14 | 52 | 3.2 | 12.9 | 0.08 | 0.10 | 0.08 | 93 | 1021.6 |
| 20260905050544 | 15 | 42 | 6.4 | 16.1 | 0.05 | 0.08 | 0.05 | 88 | 1021.8 |
| 20260905045605 | 17 | 10 | 12.9 | 32.2 | 0.03 | 0.05 | 0.03 | 75 | 1021.1 |
| 20260905044545 | 17 | 29 | 6.4 | 14.5 | 0.00 | 0.03 | 0.00 | 68 | 1020.4 |
| 20260905043545 | 18 | 44 | 8.0 | 14.5 | 0.00 | 0.03 | 0.00 | 68 | 1020.4 |
| 20260905042546 | 18 | 22 | 4.8 | 14.5 | 0.00 | 0.03 | 0.00 | 70 | 1020.1 |
| 20260905041546 | 18 | 32 | 3.2 | 12.9 | 0.00 | 0.03 | 0.00 | 74 | 1019.7 |
| 20260905040547 | 18 | 26 | 4.8 | 12.9 | 0.00 | 0.03 | 0.00 | 76 | 1019.3 |
| 20260905035547 | 18 | 27 | 9.7 | 16.1 | 0.00 | 0.03 | 0.00 | 76 | 1018.9 |
| 20260905034548 | 19 | 29 | 11.3 | 24.1 | 0.00 | 0.03 | 0.00 | 76 | 1018.5 |
| 20260905033548 | 19 | 31 | 11.3 | 29.0 | 0.00 | 0.03 | 0.00 | 76 | 1018.5 |
| 20260905032548 | 20 | 16 | 11.3 | 24.1 | 0.00 | 0.03 | 0.00 | 73 | 1018.0 |
| 20260905031548 | 21 | 48 | 3.2 | 8.0 | 0.00 | 0.03 | 0.00 | 73 | 1017.7 |
| 20260905030549 | 21 | 93 | 1.6 | 3.2 | 0.00 | 0.03 | 0.00 | 74 | 1017.5 |
| 20260905025550 | 21 | 129 | 0.0 | 1.6 | 0.00 | 0.03 | 0.00 | 74 | 1017.6 |
| 20260905024550 | 21 | 144 | 1.6 | 3.2 | 0.00 | 0.03 | 0.00 | 74 | 1017.5 |
| 20260905023610 | 21 | 189 | 3.2 | 4.8 | 0.00 | 0.03 | 0.00 | 69 | 1017.4 |
| 20260905022551 | 21 | 109 | 0.0 | 1.6 | 0.00 | 0.03 | 0.00 | 68 | 1017.1 |
| 20260905021611 | 22 | 308 | 1.6 | 8.0 | 0.00 | 0.03 | 0.00 | 66 | 1017.2 |
| 20260905020552 | 22 | 211 | 3.2 | 8.0 | 0.00 | 0.03 | 0.00 | 65 | 1017.1 |
| 20260905015552 | 21 | 315 | 3.2 | 11.3 | 0.00 | 0.03 | 0.00 | 67 | 1017.0 |
| 20260905014553 | 21 | 347 | 4.8 | 9.7 | 0.00 | 0.03 | 0.00 | 67 | 1016.9 |
| 20260905013553 | 22 | 74 | 1.6 | 4.8 | 0.00 | 0.03 | 0.00 | 65 | 1016.9 |
| 20260905012553 | 22 | 64 | 1.6 | 4.8 | 0.00 | 0.03 | 0.00 | 64 | 1017.0 |
| 20260905011554 | 22 | 58 | 4.8 | 9.7 | 0.00 | 0.03 | 0.00 | 62 | 1017.1 |
| 20260905010554 | 23 | 289 | 6.4 | 14.5 | 0.00 | 0.03 | 0.00 | 60 | 1016.9 |
| 20260905005555 | 23 | 14 | 6.4 | 16.1 | 0.00 | 0.03 | 0.00 | 59 | 1016.9 |
| 20260905004555 | 23 | 208 | 4.8 | 11.3 | 0.00 | 0.03 | 0.00 | 58 | 1016.7 |
| 20260905003555 | 23 | 244 | 3.2 | 14.5 | 0.00 | 0.03 | 0.00 | 58 | 1016.7 |
| 20260905002557 | 23 | 241 | 6.4 | 12.9 | 0.00 | 0.03 | 0.00 | 58 | 1016.6 |
| 20260905001556 | 24 | 215 | 6.4 | 12.9 | 0.00 | 0.03 | 0.00 | 57 | 1016.5 |
| 20260905000557 | 24 | 256 | 6.4 | 14.5 | 0.00 | 0.03 | 0.00 | 57 | 1016.4 |
| 20260904235557 | 24 | 249 | 8.0 | 16.1 | 0.00 | 0.03 | 0.00 | 56 | 1016.4 |
| 20260904234558 | 24 | 244 | 6.4 | 14.5 | 0.00 | 0.03 | 0.00 | 56 | 1016.5 |
| 20260904233558 | 24 | 260 | 4.8 | 16.1 | 0.00 | 0.03 | 0.00 | 55 | 1016.5 |
| 20260904232558 | 25 | 234 | 6.4 | 14.5 | 0.00 | 0.03 | 0.00 | 54 | 1016.4 |
| 20260904231559 | 25 | 232 | 4.8 | 12.9 | 0.00 | 0.03 | 0.00 | 54 | 1016.4 |
| 20260904230600 | 25 | 224 | 6.4 | 14.5 | 0.00 | 0.03 | 0.00 | 53 | 1016.3 |
| 20260904225600 | 25 | 250 | 8.0 | 20.9 | 0.00 | 0.03 | 0.00 | 52 | 1016.3 |
| 20260904224640 | 25 | 264 | 6.4 | 17.7 | 0.00 | 0.03 | 0.00 | 52 | 1016.3 |
| 20260904223601 | 25 | 223 | 6.4 | 14.5 | 0.00 | 0.03 | 0.00 | 52 | 1016.3 |
| 20260904222601 | 25 | 232 | 8.0 | 14.5 | 0.00 | 0.03 | 0.00 | 51 | 1016.0 |
| 20260904221601 | 25 | 259 | 6.4 | 16.1 | 0.00 | 0.03 | 0.00 | 50 | 1016.1 |
| 20260904220602 | 25 | 220 | 4.8 | 14.5 | 0.00 | 0.03 | 0.00 | 50 | 1016.1 |
| 20260904215622 | 25 | 259 | 4.8 | 12.9 | 0.00 | 0.03 | 0.03 | 50 | 1016.0 |
| 20260904214603 | 25 | 259 | 6.4 | 12.9 | 0.00 | 0.03 | 0.03 | 49 | 1015.9 |
| 20260904213603 | 25 | 235 | 4.8 | 12.9 | 0.00 | 0.03 | 0.03 | 50 | 1016.0 |
| 20260904212603 | 25 | 249 | 6.4 | 12.9 | 0.00 | 0.03 | 0.03 | 49 | 1015.8 |
| 20260904211604 | 25 | 280 | 6.4 | 14.5 | 0.00 | 0.03 | 0.03 | 49 | 1015.9 |
| 20260904210604 | 25 | 266 | 4.8 | 14.5 | 0.00 | 0.03 | 0.03 | 49 | 1015.7 |
| 20260904205604 | 25 | 251 | 8.0 | 20.9 | 0.00 | 0.03 | 0.03 | 48 | 1015.6 |
| 20260904204605 | 25 | 238 | 6.4 | 16.1 | 0.00 | 0.03 | 0.03 | 48 | 1015.6 |
| 20260904203538 | 25 | 252 | 6.4 | 16.1 | 0.00 | 0.03 | 0.03 | 48 | 1015.7 |
| 20260904202538 | 25 | 265 | 9.7 | 17.7 | 0.00 | 0.03 | 0.03 | 48 | 1015.6 |
| 20260904201538 | 25 | 257 | 9.7 | 20.9 | 0.00 | 0.03 | 0.03 | 47 | 1015.6 |
| 20260904200539 | 25 | 251 | 6.4 | 14.5 | 0.00 | 0.03 | 0.03 | 48 | 1015.5 |
| 20260904195539 | 25 | 244 | 4.8 | 12.9 | 0.00 | 0.03 | 0.03 | 48 | 1015.5 |
| 20260904194540 | 25 | 203 | 4.8 | 12.9 | 0.00 | 0.03 | 0.03 | 48 | 1015.5 |
| 20260904193541 | 25 | 247 | 4.8 | 12.9 | 0.00 | 0.03 | 0.03 | 48 | 1015.5 |
| 20260904192621 | 25 | 250 | 6.4 | 11.3 | 0.00 | 0.03 | 0.03 | 48 | 1015.5 |
| 20260904191541 | 25 | 230 | 3.2 | 9.7 | 0.00 | 0.03 | 0.03 | 48 | 1015.4 |
| 20260904190541 | 25 | 229 | 3.2 | 11.3 | 0.00 | 0.03 | 0.03 | 48 | 1015.4 |
| 20260904185542 | 25 | 209 | 3.2 | 9.7 | 0.00 | 0.03 | 0.03 | 48 | 1015.2 |
| 20260904184542 | 25 | 204 | 3.2 | 9.7 | 0.00 | 0.03 | 0.03 | 47 | 1015.3 |
| 20260904183542 | 25 | 233 | 4.8 | 14.5 | 0.00 | 0.03 | 0.03 | 46 | 1015.1 |
| 20260904182543 | 26 | 213 | 4.8 | 11.3 | 0.00 | 0.03 | 0.03 | 46 | 1015.0 |
| 20260904181544 | 26 | 187 | 3.2 | 8.0 | 0.00 | 0.03 | 0.03 | 45 | 1014.8 |
| 20260904180603 | 26 | 237 | 3.2 | 9.7 | 0.00 | 0.03 | 0.03 | 44 | 1014.8 |
| 20260904175604 | 27 | 206 | 3.2 | 8.0 | 0.00 | 0.03 | 0.03 | 44 | 1014.6 |
| 20260904174544 | 27 | 114 | 1.6 | 4.8 | 0.00 | 0.03 | 0.03 | 43 | 1014.5 |
| 20260904173545 | 27 | 237 | 4.8 | 11.3 | 0.00 | 0.03 | 0.03 | 42 | 1014.3 |
| 20260904172545 | 28 | 250 | 4.8 | 14.5 | 0.00 | 0.03 | 0.03 | 40 | 1014.3 |
| 20260904171546 | 29 | 225 | 3.2 | 8.0 | 0.00 | 0.03 | 0.03 | 39 | 1014.4 |
| 20260904170547 | 29 | 265 | 6.4 | 12.9 | 0.00 | 0.03 | 0.03 | 38 | 1014.4 |
| 20260904165547 | 30 | 278 | 4.8 | 11.3 | 0.00 | 0.03 | 0.03 | 37 | 1014.4 |
| 20260904164547 | 30 | 230 | 4.8 | 11.3 | 0.00 | 0.03 | 0.03 | 36 | 1014.3 |
| 20260904163548 | 30 | 275 | 4.8 | 14.5 | 0.00 | 0.03 | 0.03 | 36 | 1014.3 |
| 20260904162547 | 30 | 298 | 9.7 | 35.4 | 0.00 | 0.03 | 0.03 | 36 | 1014.3 |
| 20260904161548 | 30 | 319 | 6.4 | 16.1 | 0.00 | 0.03 | 0.03 | 36 | 1014.4 |
| 20260904160549 | 30 | 303 | 8.0 | 20.9 | 0.00 | 0.03 | 0.03 | 36 | 1014.4 |
| 20260904155550 | 31 | 292 | 9.7 | 20.9 | 0.03 | 0.03 | 0.03 | 35 | 1014.4 |
| 20260904154609 | 31 | 317 | 6.4 | 14.5 | 0.03 | 0.03 | 0.03 | 34 | 1014.4 |
| 20260904153551 | 31 | 287 | 9.7 | 20.9 | 0.03 | 0.03 | 0.03 | 33 | 1014.4 |
| 20260904152551 | 32 | 244 | 6.4 | 14.5 | 0.03 | 0.03 | 0.03 | 32 | 1014.5 |
| 20260904151550 | 31 | 266 | 9.7 | 25.7 | 0.03 | 0.03 | 0.03 | 32 | 1014.5 |
| 20260904150551 | 31 | 296 | 6.4 | 33.8 | 0.03 | 0.03 | 0.03 | 35 | 1014.7 |
| 20260904145551 | 32 | 220 | 8.0 | 22.5 | 0.00 | 0.00 | 0.00 | 31 | 1014.8 |
| 20260904144612 | 32 | 211 | 4.8 | 16.1 | 0.00 | 0.00 | 0.00 | 33 | 1014.8 |
| 20260904143553 | 32 | 233 | 4.8 | 20.9 | 0.00 | 0.00 | 0.00 | 35 | 1014.9 |
| 20260904142553 | 32 | 177 | 4.8 | 11.3 | 0.00 | 0.00 | 0.00 | 37 | 1015.0 |
| 20260904141553 | 32 | 169 | 4.8 | 17.7 | 0.00 | 0.00 | 0.00 | 36 | 1015.1 |
| 20260904140554 | 32 | 210 | 4.8 | 11.3 | 0.00 | 0.00 | 0.00 | 36 | 1015.1 |
| 20260904135554 | 31 | 256 | 6.4 | 22.5 | 0.00 | 0.00 | 0.00 | 36 | 1015.2 |
| 20260904134554 | 32 | 206 | 6.4 | 16.1 | 0.00 | 0.00 | 0.00 | 36 | 1015.4 |
| 20260904133615 | 32 | 164 | 4.8 | 12.9 | 0.00 | 0.00 | 0.00 | 36 | 1015.5 |
| 20260904132555 | 31 | 202 | 4.8 | 12.9 | 0.00 | 0.00 | 0.00 | 36 | 1015.7 |
| 20260904131555 | 32 | 225 | 4.8 | 11.3 | 0.00 | 0.00 | 0.00 | 36 | 1015.9 |
| 20260904130556 | 31 | 248 | 4.8 | 16.1 | 0.00 | 0.00 | 0.00 | 37 | 1016.1 |
| 20260904125557 | 31 | 173 | 3.2 | 12.9 | 0.00 | 0.00 | 0.00 | 38 | 1016.3 |
| 20260904124557 | 31 | 179 | 4.8 | 12.9 | 0.00 | 0.00 | 0.00 | 40 | 1016.4 |
| 20260904123558 | 31 | 207 | 4.8 | 16.1 | 0.00 | 0.00 | 0.00 | 39 | 1016.6 |
| 20260904122558 | 31 | 178 | 3.2 | 11.3 | 0.00 | 0.00 | 0.00 | 40 | 1016.8 |
| 20260904121632 | 30 | 164 | 3.2 | 12.9 | 0.00 | 0.00 | 0.00 | 41 | 1016.9 |
| 20260904120558 | 31 | 104 | 3.2 | 11.3 | 0.00 | 0.00 | 0.00 | 40 | 1017.1 |
| 20260904115600 | 30 | 208 | 6.4 | 14.5 | 0.00 | 0.00 | 0.00 | 42 | 1017.3 |
| 20260904114619 | 29 | 216 | 8.0 | 22.5 | 0.00 | 0.00 | 0.00 | 42 | 1017.5 |
| 20260904113620 | 29 | 196 | 4.8 | 11.3 | 0.00 | 0.00 | 0.00 | 43 | 1017.7 |
| 20260904112601 | 29 | 142 | 4.8 | 11.3 | 0.00 | 0.00 | 0.00 | 44 | 1017.8 |
| 20260904111601 | 29 | 186 | 3.2 | 9.7 | 0.00 | 0.00 | 0.00 | 43 | 1018.1 |
| 20260904110601 | 28 | 157 | 4.8 | 14.5 | 0.00 | 0.00 | 0.00 | 44 | 1018.2 |
| 20260904105603 | 28 | 253 | 3.2 | 9.7 | 0.00 | 0.00 | 0.00 | 46 | 1018.4 |
| 20260904104602 | 28 | 178 | 4.8 | 12.9 | 0.00 | 0.00 | 0.00 | 45 | 1018.7 |
| 20260904103603 | 28 | 157 | 4.8 | 12.9 | 0.00 | 0.00 | 0.00 | 45 | 1018.8 |
| 20260904102603 | 28 | 208 | 4.8 | 11.3 | 0.00 | 0.00 | 0.00 | 45 | 1019.0 |
| 20260904101603 | 27 | 188 | 4.8 | 12.9 | 0.00 | 0.00 | 0.00 | 47 | 1019.2 |
| 20260904100603 | 27 | 187 | 3.2 | 11.3 | 0.00 | 0.00 | 0.00 | 47 | 1019.3 |
| 20260904095604 | 27 | 128 | 4.8 | 14.5 | 0.00 | 0.00 | 0.00 | 47 | 1019.4 |
| 20260904094605 | 26 | 229 | 6.4 | 12.9 | 0.00 | 0.00 | 0.00 | 48 | 1019.7 |
| 20260904093604 | 26 | 201 | 1.6 | 16.1 | 0.00 | 0.00 | 0.00 | 49 | 1019.9 |
| 20260904092626 | 27 | 190 | 3.2 | 9.7 | 0.00 | 0.00 | 0.00 | 48 | 1020.1 |
| 20260904091605 | 26 | 172 | 3.2 | 9.7 | 0.00 | 0.00 | 0.00 | 50 | 1020.2 |
| 20260904090626 | 26 | 139 | 3.2 | 9.7 | 0.00 | 0.00 | 0.00 | 49 | 1020.3 |
| 20260904085606 | 26 | 146 | 3.2 | 9.7 | 0.00 | 0.00 | 0.00 | 51 | 1020.4 |
| 20260904084607 | 25 | 196 | 3.2 | 8.0 | 0.00 | 0.00 | 0.00 | 53 | 1020.4 |
| 20260904083607 | 25 | 216 | 3.2 | 9.7 | 0.00 | 0.00 | 0.00 | 52 | 1020.5 |
| 20260904082608 | 25 | 132 | 1.6 | 11.3 | 0.00 | 0.00 | 0.00 | 53 | 1020.5 |
| 20260904081608 | 24 | 213 | 4.8 | 12.9 | 0.00 | 0.00 | 0.00 | 54 | 1020.5 |
| 20260904080608 | 24 | 211 | 4.8 | 11.3 | 0.00 | 0.00 | 0.00 | 54 | 1020.6 |
| 20260904075610 | 24 | 183 | 3.2 | 11.3 | 0.00 | 0.00 | 0.00 | 55 | 1020.5 |
| 20260904074629 | 23 | 216 | 3.2 | 9.7 | 0.00 | 0.00 | 0.00 | 57 | 1020.7 |
| 20260904073558 | 23 | 126 | 3.2 | 11.3 | 0.00 | 0.00 | 0.00 | 58 | 1020.6 |
| 20260904072538 | 23 | 175 | 3.2 | 11.3 | 0.00 | 0.00 | 0.00 | 59 | 1020.6 |
| 20260904071539 | 23 | 173 | 3.2 | 8.0 | 0.00 | 0.00 | 0.00 | 58 | 1020.6 |
| 20260904070539 | 22 | 117 | 1.6 | 4.8 | 0.00 | 0.00 | 0.00 | 60 | 1020.7 |
| 20260904065539 | 23 | 109 | 1.6 | 3.2 | 0.00 | 0.00 | 0.00 | 60 | 1020.7 |